createdAt,value
2022-09-18T00:06:22.724Z,11.46
2022-09-18T00:09:32.850Z,11.44
2022-09-18T00:12:41.871Z,11.41
2022-09-18T00:16:04.708Z,11.41
2022-09-18T00:19:11.925Z,11.33
2022-09-18T00:22:23.074Z,11.33
2022-09-18T00:25:30.698Z,11.39
2022-09-18T00:28:40.039Z,11.39
2022-09-18T00:31:55.209Z,11.31
2022-09-18T00:35:06.587Z,11.35
2022-09-18T00:38:18.196Z,11.38
2022-09-18T00:41:31.206Z,11.34
2022-09-18T00:44:41.690Z,11.32
2022-09-18T00:47:54.450Z,11.33
2022-09-18T00:51:01.871Z,11.30
2022-09-18T00:54:18.001Z,11.30
2022-09-18T00:57:27.761Z,11.38
2022-09-18T01:00:35.938Z,11.36
2022-09-18T01:03:44.894Z,11.34
2022-09-18T01:06:56.387Z,11.36
2022-09-18T01:10:16.495Z,11.36
2022-09-18T01:13:34.965Z,11.39
2022-09-18T01:16:49.082Z,11.34
2022-09-18T01:20:25.757Z,11.41
2022-09-18T01:24:03.052Z,11.35
2022-09-18T01:27:12.943Z,11.31
2022-09-18T01:30:32.277Z,11.26
2022-09-18T01:33:43.595Z,11.26
2022-09-18T01:36:56.113Z,11.25
2022-09-18T01:40:15.885Z,11.28
2022-09-18T01:43:24.584Z,11.23
2022-09-18T01:46:34.610Z,11.16
2022-09-18T01:49:46.329Z,11.13
2022-09-18T01:52:59.792Z,11.15
2022-09-18T01:56:12.896Z,11.15
2022-09-18T01:59:30.882Z,11.19
2022-09-18T02:02:47.371Z,11.19
2022-09-18T02:05:58.528Z,11.14
2022-09-18T02:09:16.876Z,11.11
2022-09-18T02:12:29.997Z,11.21
2022-09-18T02:15:41.924Z,11.13
2022-09-18T02:18:59.110Z,11.13
2022-09-18T02:22:14.791Z,11.19
2022-09-18T02:25:41.225Z,11.04
2022-09-18T02:29:52.187Z,11.04
2022-09-18T02:33:22.312Z,11.02
2022-09-18T02:37:25.162Z,11.07
2022-09-18T02:44:38.352Z,11.01
2022-09-18T02:51:55.957Z,11.07
2022-09-18T02:55:43.698Z,11.00
2022-09-18T02:58:57.050Z,11.02
2022-09-18T03:05:46.351Z,11.07
2022-09-18T03:09:10.579Z,11.03
2022-09-18T03:12:18.949Z,11.01
2022-09-18T03:15:24.842Z,11.07
2022-09-18T03:18:33.262Z,11.09
2022-09-18T03:21:42.779Z,11.04
2022-09-18T03:24:52.516Z,11.05
2022-09-18T03:28:04.722Z,11.13
2022-09-18T03:31:11.258Z,11.13
2022-09-18T03:34:19.853Z,11.09
2022-09-18T03:37:28.792Z,11.11
2022-09-18T03:40:38.185Z,11.12
2022-09-18T03:43:47.120Z,11.13
2022-09-18T03:46:53.790Z,11.17
2022-09-18T03:50:01.933Z,11.11
2022-09-18T03:53:10.603Z,11.14
2022-09-18T03:56:18.667Z,11.15
2022-09-18T03:59:28.367Z,11.07
2022-09-18T04:02:38.168Z,11.08
2022-09-18T04:05:44.808Z,11.11
2022-09-18T04:08:51.698Z,11.09
2022-09-18T04:11:59.392Z,11.04
2022-09-18T04:15:07.552Z,11.10
2022-09-18T04:18:17.866Z,11.11
2022-09-18T04:21:25.362Z,11.18
2022-09-18T04:24:32.345Z,11.19
2022-09-18T04:27:40.145Z,11.23
2022-09-18T04:30:50.694Z,11.11
2022-09-18T04:33:59.851Z,11.16
2022-09-18T04:37:10.278Z,11.09
2022-09-18T04:40:26.597Z,11.08
2022-09-18T04:43:39.644Z,11.09
2022-09-18T04:46:55.092Z,11.05
2022-09-18T04:50:05.130Z,11.02
2022-09-18T04:53:10.858Z,11.05
2022-09-18T04:56:17.616Z,11.09
2022-09-18T04:59:25.773Z,11.14
2022-09-18T05:02:35.905Z,11.09
2022-09-18T05:05:42.643Z,11.11
2022-09-18T05:08:50.088Z,11.16
2022-09-18T05:11:56.988Z,11.22
2022-09-18T05:15:04.102Z,11.17
2022-09-18T05:18:16.453Z,11.18
2022-09-18T05:21:23.326Z,11.14
2022-09-18T05:24:31.194Z,11.05
2022-09-18T05:27:41.227Z,11.02
2022-09-18T05:30:51.811Z,11.04
2022-09-18T05:33:59.237Z,11.05
2022-09-18T05:37:05.878Z,11.01
2022-09-18T05:40:18.469Z,10.99
2022-09-18T05:43:25.223Z,11.01
2022-09-18T05:46:32.904Z,11.00
2022-09-18T05:49:42.165Z,11.03
2022-09-18T05:52:51.965Z,11.02
2022-09-18T05:55:58.180Z,11.09
2022-09-18T05:59:08.117Z,11.14
2022-09-18T06:02:15.265Z,11.14
2022-09-18T06:05:23.246Z,11.18
2022-09-18T06:08:34.431Z,11.13
2022-09-18T06:11:41.684Z,11.18
2022-09-18T06:15:05.598Z,11.18
2022-09-18T06:18:15.230Z,11.11
2022-09-18T06:21:25.477Z,11.11
2022-09-18T06:24:50.200Z,11.16
2022-09-18T06:28:22.969Z,11.14
2022-09-18T06:31:58.102Z,11.15
2022-09-18T06:35:04.388Z,11.14
2022-09-18T06:38:16.797Z,11.22
2022-09-18T06:41:50.492Z,11.18
2022-09-18T06:44:57.303Z,11.12
2022-09-18T06:51:56.923Z,11.22
2022-09-18T06:55:36.151Z,11.25
2022-09-18T06:58:44.767Z,11.26
2022-09-18T07:01:57.734Z,11.29
2022-09-18T07:05:07.111Z,11.26
2022-09-18T07:08:19.459Z,11.34
2022-09-18T07:11:27.555Z,11.41
2022-09-18T07:14:36.499Z,11.48
2022-09-18T07:17:45.518Z,11.42
2022-09-18T07:20:51.490Z,11.38
2022-09-18T07:24:00.102Z,11.41
2022-09-18T07:27:08.495Z,11.41
2022-09-18T07:30:23.292Z,11.50
2022-09-18T07:33:31.603Z,11.53
2022-09-18T07:36:44.546Z,11.60
2022-09-18T07:39:56.599Z,11.64
2022-09-18T07:43:13.098Z,11.71
2022-09-18T07:46:21.239Z,11.72
2022-09-18T07:49:27.265Z,11.76
2022-09-18T07:52:34.167Z,11.84
2022-09-18T07:55:43.784Z,11.90
2022-09-18T07:58:53.171Z,12.02
2022-09-18T08:02:02.231Z,12.07
2022-09-18T08:05:08.500Z,12.10
2022-09-18T08:08:18.418Z,12.23
2022-09-18T08:11:25.305Z,12.32
2022-09-18T08:14:33.825Z,12.33
2022-09-18T08:17:47.464Z,12.32
2022-09-18T08:20:54.445Z,12.37
2022-09-18T08:24:03.177Z,12.42
2022-09-18T08:27:09.783Z,12.35
2022-09-18T08:30:18.570Z,12.44
2022-09-18T08:33:26.685Z,12.51
2022-09-18T08:36:37.193Z,12.60
2022-09-18T08:40:05.249Z,12.72
2022-09-18T08:43:19.494Z,12.75
2022-09-18T08:46:35.747Z,12.87
2022-09-18T08:49:51.371Z,13.02
2022-09-18T08:53:03.265Z,13.07
2022-09-18T08:56:17.842Z,13.04
2022-09-18T08:59:36.223Z,12.93
2022-09-18T09:02:47.258Z,12.78
2022-09-18T09:06:01.293Z,12.69
2022-09-18T09:09:38.194Z,12.66
2022-09-18T09:12:52.764Z,12.53
2022-09-18T09:16:03.943Z,12.58
2022-09-18T09:19:25.514Z,12.52
2022-09-18T09:22:35.351Z,12.61
2022-09-18T09:25:45.113Z,12.63
2022-09-18T09:28:55.661Z,12.70
2022-09-18T09:32:01.383Z,12.76
2022-09-18T09:35:22.617Z,12.79
2022-09-18T09:38:42.253Z,12.79
2022-09-18T09:41:50.498Z,12.85
2022-09-18T09:44:56.736Z,12.86
2022-09-18T09:48:07.615Z,12.89
2022-09-18T09:51:18.104Z,12.94
2022-09-18T09:54:21.074Z,12.99
2022-09-18T09:57:32.534Z,13.04
2022-09-18T10:00:40.957Z,13.24
2022-09-18T10:03:56.418Z,13.43
2022-09-18T10:07:11.144Z,13.65
2022-09-18T10:10:22.925Z,13.82
2022-09-18T10:13:31.818Z,13.86
2022-09-18T10:16:39.180Z,13.89
2022-09-18T10:19:44.758Z,13.94
2022-09-18T10:22:49.006Z,14.06
2022-09-18T10:25:55.588Z,14.10
2022-09-18T10:28:58.923Z,14.16
2022-09-18T10:32:02.464Z,14.32
2022-09-18T10:35:55.614Z,14.48
2022-09-18T10:39:01.406Z,14.54
2022-09-18T10:42:05.954Z,14.65
2022-09-18T10:45:23.013Z,14.85
2022-09-18T10:48:27.596Z,15.04
2022-09-18T10:51:30.343Z,15.21
2022-09-18T10:54:34.445Z,15.32
2022-09-18T10:57:39.266Z,15.46
2022-09-18T11:00:48.514Z,15.51
2022-09-18T11:04:01.936Z,15.55
2022-09-18T11:07:07.549Z,15.58
2022-09-18T11:10:17.891Z,15.46
2022-09-18T11:13:24.238Z,15.47
2022-09-18T11:16:37.852Z,15.45
2022-09-18T11:19:41.030Z,15.44
2022-09-18T11:22:45.252Z,15.50
2022-09-18T11:25:50.011Z,15.47
2022-09-18T11:29:02.234Z,15.42
2022-09-18T11:32:14.290Z,15.36
2022-09-18T11:35:19.157Z,15.62
2022-09-18T11:38:22.033Z,15.89
2022-09-18T11:41:31.598Z,15.95
2022-09-18T11:44:35.911Z,15.92
2022-09-18T11:47:44.908Z,15.77
2022-09-18T11:50:47.726Z,15.79
2022-09-18T11:53:55.315Z,15.80
2022-09-18T11:57:01.713Z,15.86
2022-09-18T12:00:08.941Z,15.96
2022-09-18T12:03:18.358Z,16.10
2022-09-18T12:06:29.252Z,16.25
2022-09-18T12:09:56.415Z,16.37
2022-09-18T12:13:41.744Z,16.67
2022-09-18T12:16:50.648Z,16.71
2022-09-18T12:19:57.908Z,16.52
2022-09-18T12:23:02.053Z,16.22
2022-09-18T12:26:11.835Z,16.08
2022-09-18T12:29:25.706Z,16.13
2022-09-18T12:32:55.089Z,16.30
2022-09-18T12:36:34.831Z,16.56
2022-09-18T12:40:04.500Z,16.54
2022-09-18T12:43:26.121Z,16.49
2022-09-18T12:46:48.468Z,16.60
2022-09-18T12:50:03.652Z,16.65
2022-09-18T12:53:23.080Z,16.61
2022-09-18T12:56:41.830Z,16.41
2022-09-18T12:59:59.557Z,16.30
2022-09-18T13:03:12.561Z,16.17
2022-09-18T13:06:20.274Z,16.00
2022-09-18T13:09:27.969Z,15.83
2022-09-18T13:12:36.232Z,15.75
2022-09-18T13:15:44.518Z,15.64
2022-09-18T13:19:05.674Z,15.62
2022-09-18T13:22:17.921Z,15.59
2022-09-18T13:25:35.077Z,15.57
2022-09-18T13:28:46.825Z,15.45
2022-09-18T13:31:57.711Z,15.43
2022-09-18T13:35:08.104Z,15.46
2022-09-18T13:38:18.818Z,15.48
2022-09-18T13:41:30.337Z,15.50
2022-09-18T13:44:39.572Z,15.46
2022-09-18T13:48:05.593Z,15.42
2022-09-18T13:51:22.829Z,15.34
2022-09-18T13:54:33.268Z,15.23
2022-09-18T13:57:42.842Z,15.15
2022-09-18T14:00:53.304Z,15.07
2022-09-18T14:04:02.722Z,15.03
2022-09-18T14:07:48.231Z,14.93
2022-09-18T14:11:17.993Z,14.91
2022-09-18T14:18:20.888Z,15.15
2022-09-18T14:21:34.806Z,15.31
2022-09-18T14:25:01.202Z,15.44
2022-09-18T14:28:09.605Z,15.47
2022-09-18T14:31:31.563Z,15.45
2022-09-18T14:34:42.272Z,15.41
2022-09-18T14:37:47.789Z,15.45
2022-09-18T14:41:06.267Z,15.41
2022-09-18T14:44:22.129Z,15.39
2022-09-18T14:47:31.616Z,15.42
2022-09-18T14:50:38.699Z,15.42
2022-09-18T14:53:47.942Z,15.38
2022-09-18T14:56:58.524Z,15.41
2022-09-18T15:00:18.410Z,15.42
2022-09-18T15:06:58.162Z,15.34
2022-09-18T15:10:03.861Z,15.37
2022-09-18T15:13:14.577Z,15.32
2022-09-18T15:16:24.334Z,15.29
2022-09-18T15:19:30.443Z,15.19
2022-09-18T15:22:35.262Z,15.10
2022-09-18T15:25:44.043Z,15.08
2022-09-18T15:28:52.698Z,15.03
2022-09-18T15:31:58.220Z,14.95
2022-09-18T15:35:03.709Z,14.89
2022-09-18T15:38:16.007Z,14.85
2022-09-18T15:41:31.905Z,14.82
2022-09-18T15:45:12.167Z,14.81
2022-09-18T15:48:37.884Z,14.81
2022-09-18T15:51:43.498Z,14.70
2022-09-18T15:55:07.399Z,14.69
2022-09-18T15:58:26.745Z,14.56
2022-09-18T16:01:35.902Z,14.55
2022-09-18T16:04:42.375Z,14.46
2022-09-18T16:07:57.203Z,14.53
2022-09-18T16:11:02.556Z,14.51
2022-09-18T16:14:30.509Z,14.43
2022-09-18T16:17:40.857Z,14.37
2022-09-18T16:21:03.233Z,14.34
2022-09-18T16:24:11.152Z,14.40
2022-09-18T16:27:18.637Z,14.42
2022-09-18T16:30:25.463Z,14.43
2022-09-18T16:33:32.436Z,14.41
2022-09-18T16:36:40.509Z,14.44
2022-09-18T16:39:45.584Z,14.45
2022-09-18T16:42:50.809Z,14.44
2022-09-18T16:45:56.584Z,14.41
2022-09-18T16:49:02.362Z,14.42
2022-09-18T16:52:10.821Z,14.39
2022-09-18T16:55:16.761Z,14.34
2022-09-18T16:58:23.238Z,14.36
2022-09-18T17:01:36.266Z,14.33
2022-09-18T17:04:53.202Z,14.32
2022-09-18T17:07:59.765Z,14.27
2022-09-18T17:11:05.416Z,14.26
2022-09-18T17:14:10.923Z,14.18
2022-09-18T17:17:16.757Z,14.18
2022-09-18T17:20:23.872Z,14.19
2022-09-18T17:23:31.096Z,14.19
2022-09-18T17:26:39.659Z,14.14
2022-09-18T17:29:44.494Z,14.15
2022-09-18T17:32:49.972Z,14.14
2022-09-18T17:35:55.009Z,14.14
2022-09-18T17:39:05.766Z,14.17
2022-09-18T17:42:10.749Z,14.02
2022-09-18T17:45:15.624Z,14.00
2022-09-18T17:48:20.437Z,14.05
2022-09-18T17:51:28.641Z,14.09
2022-09-18T17:54:36.863Z,14.04
2022-09-18T17:57:44.890Z,14.01
2022-09-18T18:00:50.159Z,14.02
2022-09-18T18:03:54.914Z,14.03
2022-09-18T18:06:59.628Z,14.04
2022-09-18T18:10:06.449Z,14.13
2022-09-18T18:13:11.004Z,14.15
2022-09-18T18:16:23.857Z,14.10
2022-09-18T18:19:29.150Z,14.11
2022-09-18T18:22:34.037Z,14.10
2022-09-18T18:25:40.678Z,14.12
2022-09-18T18:28:45.446Z,14.19
2022-09-18T18:31:52.126Z,14.20
2022-09-18T18:34:57.244Z,14.18
2022-09-18T18:38:02.042Z,14.14
2022-09-18T18:41:11.498Z,14.10
2022-09-18T18:44:18.142Z,14.13
2022-09-18T18:47:25.720Z,14.13
2022-09-18T18:50:34.434Z,14.14
2022-09-18T18:53:39.402Z,14.14
2022-09-18T18:56:46.326Z,14.15
2022-09-18T18:59:51.175Z,14.07
2022-09-18T19:02:56.801Z,14.09
2022-09-18T19:06:03.855Z,14.13
2022-09-18T19:09:11.694Z,14.15
2022-09-18T19:12:18.653Z,14.11
2022-09-18T19:15:23.697Z,14.13
2022-09-18T19:18:28.295Z,14.22
2022-09-18T19:21:33.077Z,14.18
2022-09-18T19:24:37.638Z,14.16
2022-09-18T19:27:44.096Z,14.19
2022-09-18T19:30:49.620Z,14.11
2022-09-18T19:33:55.526Z,14.12
2022-09-18T19:37:00.862Z,14.15
2022-09-18T19:40:06.024Z,14.09
2022-09-18T19:43:17.151Z,14.14
2022-09-18T19:46:35.049Z,14.11
2022-09-18T19:49:40.737Z,14.05
2022-09-18T19:52:48.528Z,14.05
2022-09-18T19:55:56.672Z,14.03
2022-09-18T19:59:03.409Z,14.10
2022-09-18T20:02:09.126Z,14.01
2022-09-18T20:05:14.108Z,13.90
2022-09-18T20:08:21.546Z,13.84
2022-09-18T20:11:26.689Z,13.67
2022-09-18T20:14:34.999Z,13.55
2022-09-18T20:17:40.704Z,13.40
2022-09-18T20:20:50.328Z,13.19
2022-09-18T20:23:58.738Z,13.06
2022-09-18T20:27:03.715Z,12.95
2022-09-18T20:30:12.968Z,12.80
2022-09-18T20:33:18.282Z,12.72
2022-09-18T20:36:23.096Z,12.66
2022-09-18T20:39:28.030Z,12.64
2022-09-18T20:42:32.431Z,12.60
2022-09-18T20:45:36.369Z,12.46
2022-09-18T20:48:41.744Z,12.40
2022-09-18T20:51:44.397Z,12.37
2022-09-18T20:54:47.045Z,12.27
2022-09-18T20:57:49.993Z,12.19
2022-09-18T21:00:55.184Z,12.28
2022-09-18T21:03:59.821Z,12.19
2022-09-18T21:07:02.520Z,12.21
2022-09-18T21:10:06.275Z,12.14
2022-09-18T21:13:08.941Z,12.15
2022-09-18T21:16:14.045Z,12.09
2022-09-18T21:19:19.858Z,12.11
2022-09-18T21:22:22.480Z,12.10
2022-09-18T21:25:25.531Z,12.16
2022-09-18T21:28:28.379Z,12.17
2022-09-18T21:31:39.194Z,12.18
2022-09-18T21:34:42.392Z,12.21
2022-09-18T21:37:45.061Z,12.20
2022-09-18T21:40:47.994Z,12.20
2022-09-18T21:43:53.992Z,12.11
2022-09-18T21:47:00.866Z,12.12
2022-09-18T21:50:03.791Z,12.13
2022-09-18T21:53:06.431Z,12.18
2022-09-18T21:56:10.912Z,12.21
2022-09-18T21:59:15.458Z,12.17
2022-09-18T22:02:22.063Z,12.08
2022-09-18T22:05:25.017Z,12.01
2022-09-18T22:08:29.905Z,11.97
2022-09-18T22:11:36.759Z,12.06
2022-09-18T22:14:39.537Z,12.11
2022-09-18T22:17:43.828Z,12.08
2022-09-18T22:20:46.875Z,11.98
2022-09-18T22:23:50.942Z,11.99
2022-09-18T22:26:56.370Z,11.96
2022-09-18T22:29:58.997Z,11.91
2022-09-18T22:33:05.547Z,11.93
2022-09-18T22:36:08.965Z,11.88
2022-09-18T22:39:12.603Z,11.94
2022-09-18T22:42:15.398Z,12.01
2022-09-18T22:45:18.933Z,11.96
2022-09-18T22:48:23.089Z,11.93
2022-09-18T22:51:27.424Z,11.94
2022-09-18T22:54:30.053Z,11.85
2022-09-18T22:57:32.721Z,11.73
2022-09-18T23:00:35.956Z,11.71
2022-09-18T23:03:40.804Z,11.63
2022-09-18T23:06:43.692Z,11.52
2022-09-18T23:09:47.383Z,11.53
2022-09-18T23:12:50.081Z,11.52
2022-09-18T23:15:52.679Z,11.38
2022-09-18T23:18:58.962Z,11.23
2022-09-18T23:22:02.497Z,11.28
2022-09-18T23:25:05.696Z,11.25
2022-09-18T23:28:08.445Z,11.19
2022-09-18T23:31:14.298Z,11.19
2022-09-18T23:34:20.069Z,11.12
2022-09-18T23:37:22.776Z,11.10
2022-09-18T23:40:25.495Z,11.02
2022-09-18T23:43:28.224Z,11.01
2022-09-18T23:46:33.039Z,11.00
2022-09-18T23:49:37.035Z,10.94
2022-09-18T23:52:39.669Z,10.92
2022-09-18T23:55:42.316Z,10.87
2022-09-18T23:58:45.754Z,10.92
